sensor_id;sensor_type;location;lat;lon;timestamp;P1;durP1;ratioP1;P2;durP2;ratioP2
16139;SDS011;8175;49.326;12.690;2022-10-16T00:00:30;6.43;;;3.90;;
16139;SDS011;8175;49.326;12.690;2022-10-16T00:02:56;3.60;;;3.30;;
16139;SDS011;8175;49.326;12.690;2022-10-16T00:05:21;3.40;;;3.10;;
16139;SDS011;8175;49.326;12.690;2022-10-16T00:07:47;3.10;;;2.90;;
16139;SDS011;8175;49.326;12.690;2022-10-16T00:10:13;3.60;;;2.90;;
16139;SDS011;8175;49.326;12.690;2022-10-16T00:12:38;3.20;;;2.90;;
16139;SDS011;8175;49.326;12.690;2022-10-16T00:15:04;4.43;;;3.03;;
16139;SDS011;8175;49.326;12.690;2022-10-16T00:17:31;3.47;;;3.17;;
16139;SDS011;8175;49.326;12.690;2022-10-16T00:19:56;7.40;;;2.50;;
16139;SDS011;8175;49.326;12.690;2022-10-16T00:22:22;4.80;;;2.63;;
16139;SDS011;8175;49.326;12.690;2022-10-16T00:24:48;2.97;;;2.57;;
16139;SDS011;8175;49.326;12.690;2022-10-16T00:27:14;2.80;;;2.50;;
16139;SDS011;8175;49.326;12.690;2022-10-16T00:29:39;2.93;;;2.67;;
16139;SDS011;8175;49.326;12.690;2022-10-16T00:32:05;2.87;;;2.30;;
16139;SDS011;8175;49.326;12.690;2022-10-16T00:34:31;2.60;;;2.40;;
16139;SDS011;8175;49.326;12.690;2022-10-16T00:36:56;2.83;;;2.63;;
16139;SDS011;8175;49.326;12.690;2022-10-16T00:39:22;3.60;;;2.20;;
16139;SDS011;8175;49.326;12.690;2022-10-16T00:41:48;3.70;;;2.63;;
16139;SDS011;8175;49.326;12.690;2022-10-16T00:47:14;4.50;;;3.90;;
16139;SDS011;8175;49.326;12.690;2022-10-16T00:50:16;3.50;;;3.20;;
16139;SDS011;8175;49.326;12.690;2022-10-16T00:52:48;4.23;;;3.60;;
16139;SDS011;8175;49.326;12.690;2022-10-16T00:55:16;6.67;;;4.73;;
16139;SDS011;8175;49.326;12.690;2022-10-16T00:57:42;6.07;;;5.47;;
16139;SDS011;8175;49.326;12.690;2022-10-16T01:00:10;7.33;;;6.63;;
16139;SDS011;8175;49.326;12.690;2022-10-16T01:02:38;9.33;;;6.70;;
16139;SDS011;8175;49.326;12.690;2022-10-16T01:05:03;6.47;;;5.77;;
16139;SDS011;8175;49.326;12.690;2022-10-16T01:07:39;9.30;;;5.23;;
16139;SDS011;8175;49.326;12.690;2022-10-16T01:10:28;5.57;;;4.73;;
16139;SDS011;8175;49.326;12.690;2022-10-16T01:13:05;6.93;;;4.43;;
16139;SDS011;8175;49.326;12.690;2022-10-16T01:15:34;5.47;;;4.97;;
16139;SDS011;8175;49.326;12.690;2022-10-16T01:20:47;7.17;;;4.90;;
16139;SDS011;8175;49.326;12.690;2022-10-16T01:31:59;5.20;;;4.70;;
16139;SDS011;8175;49.326;12.690;2022-10-16T01:34:31;5.50;;;5.00;;
16139;SDS011;8175;49.326;12.690;2022-10-16T01:37:02;6.60;;;5.03;;
16139;SDS011;8175;49.326;12.690;2022-10-16T01:39:39;5.87;;;5.07;;
16139;SDS011;8175;49.326;12.690;2022-10-16T01:42:24;6.60;;;5.00;;
16139;SDS011;8175;49.326;12.690;2022-10-16T01:44:58;5.67;;;5.13;;
16139;SDS011;8175;49.326;12.690;2022-10-16T01:47:25;5.90;;;5.03;;
16139;SDS011;8175;49.326;12.690;2022-10-16T01:49:52;7.70;;;5.10;;
16139;SDS011;8175;49.326;12.690;2022-10-16T01:52:20;8.00;;;5.43;;
16139;SDS011;8175;49.326;12.690;2022-10-16T01:54:50;5.70;;;5.20;;
16139;SDS011;8175;49.326;12.690;2022-10-16T01:57:18;7.63;;;5.47;;
16139;SDS011;8175;49.326;12.690;2022-10-16T01:59:48;7.83;;;5.77;;
16139;SDS011;8175;49.326;12.690;2022-10-16T02:02:17;5.73;;;5.03;;
16139;SDS011;8175;49.326;12.690;2022-10-16T02:04:48;7.97;;;4.73;;
16139;SDS011;8175;49.326;12.690;2022-10-16T02:07:19;5.23;;;4.73;;
16139;SDS011;8175;49.326;12.690;2022-10-16T02:09:44;5.83;;;5.10;;
16139;SDS011;8175;49.326;12.690;2022-10-16T02:12:15;8.10;;;5.40;;
16139;SDS011;8175;49.326;12.690;2022-10-16T02:14:48;5.97;;;5.37;;
16139;SDS011;8175;49.326;12.690;2022-10-16T02:17:16;5.73;;;5.10;;
16139;SDS011;8175;49.326;12.690;2022-10-16T02:19:42;5.57;;;4.97;;
16139;SDS011;8175;49.326;12.690;2022-10-16T02:22:10;5.77;;;4.80;;
16139;SDS011;8175;49.326;12.690;2022-10-16T02:25:10;5.80;;;5.20;;
16139;SDS011;8175;49.326;12.690;2022-10-16T02:28:09;7.20;;;5.47;;
16139;SDS011;8175;49.326;12.690;2022-10-16T02:30:51;5.27;;;4.77;;
16139;SDS011;8175;49.326;12.690;2022-10-16T02:33:26;6.43;;;5.77;;
16139;SDS011;8175;49.326;12.690;2022-10-16T02:35:54;5.67;;;5.17;;
16139;SDS011;8175;49.326;12.690;2022-10-16T02:38:20;6.47;;;5.17;;
16139;SDS011;8175;49.326;12.690;2022-10-16T02:40:47;5.63;;;4.90;;
16139;SDS011;8175;49.326;12.690;2022-10-16T02:43:14;6.97;;;5.23;;
16139;SDS011;8175;49.326;12.690;2022-10-16T02:45:40;7.97;;;5.73;;
16139;SDS011;8175;49.326;12.690;2022-10-16T02:48:05;6.60;;;5.17;;
16139;SDS011;8175;49.326;12.690;2022-10-16T02:50:31;6.17;;;4.97;;
16139;SDS011;8175;49.326;12.690;2022-10-16T02:52:57;5.47;;;4.97;;
16139;SDS011;8175;49.326;12.690;2022-10-16T02:55:23;5.77;;;5.07;;
16139;SDS011;8175;49.326;12.690;2022-10-16T02:57:48;5.27;;;4.80;;
16139;SDS011;8175;49.326;12.690;2022-10-16T03:00:15;5.20;;;4.67;;
16139;SDS011;8175;49.326;12.690;2022-10-16T03:02:42;6.20;;;4.73;;
16139;SDS011;8175;49.326;12.690;2022-10-16T03:05:08;5.33;;;4.80;;
16139;SDS011;8175;49.326;12.690;2022-10-16T03:07:35;6.57;;;4.90;;
16139;SDS011;8175;49.326;12.690;2022-10-16T03:10:00;8.13;;;4.77;;
16139;SDS011;8175;49.326;12.690;2022-10-16T03:12:27;6.20;;;4.50;;
16139;SDS011;8175;49.326;12.690;2022-10-16T03:14:53;5.10;;;4.60;;
16139;SDS011;8175;49.326;12.690;2022-10-16T03:17:21;5.83;;;5.17;;
16139;SDS011;8175;49.326;12.690;2022-10-16T03:19:47;5.87;;;5.23;;
16139;SDS011;8175;49.326;12.690;2022-10-16T03:22:13;5.10;;;4.60;;
16139;SDS011;8175;49.326;12.690;2022-10-16T03:24:38;5.33;;;4.70;;
16139;SDS011;8175;49.326;12.690;2022-10-16T03:27:04;6.63;;;5.17;;
16139;SDS011;8175;49.326;12.690;2022-10-16T03:29:30;6.33;;;5.70;;
16139;SDS011;8175;49.326;12.690;2022-10-16T03:31:57;6.73;;;5.20;;
16139;SDS011;8175;49.326;12.690;2022-10-16T03:34:22;4.97;;;4.47;;
16139;SDS011;8175;49.326;12.690;2022-10-16T03:36:48;5.67;;;4.73;;
16139;SDS011;8175;49.326;12.690;2022-10-16T03:39:13;6.33;;;5.00;;
16139;SDS011;8175;49.326;12.690;2022-10-16T03:41:39;5.97;;;5.37;;
16139;SDS011;8175;49.326;12.690;2022-10-16T03:44:05;6.63;;;5.03;;
16139;SDS011;8175;49.326;12.690;2022-10-16T03:46:31;5.63;;;4.67;;
16139;SDS011;8175;49.326;12.690;2022-10-16T03:48:56;5.43;;;4.37;;
16139;SDS011;8175;49.326;12.690;2022-10-16T03:51:22;6.73;;;4.97;;
16139;SDS011;8175;49.326;12.690;2022-10-16T03:53:48;5.50;;;5.00;;
16139;SDS011;8175;49.326;12.690;2022-10-16T03:56:13;5.10;;;4.60;;
16139;SDS011;8175;49.326;12.690;2022-10-16T03:58:39;5.47;;;4.90;;
16139;SDS011;8175;49.326;12.690;2022-10-16T04:01:04;4.50;;;4.10;;
16139;SDS011;8175;49.326;12.690;2022-10-16T04:03:30;6.73;;;4.90;;
16139;SDS011;8175;49.326;12.690;2022-10-16T04:05:56;4.80;;;4.40;;
16139;SDS011;8175;49.326;12.690;2022-10-16T04:08:22;4.80;;;4.40;;
16139;SDS011;8175;49.326;12.690;2022-10-16T04:10:48;5.70;;;5.20;;
16139;SDS011;8175;49.326;12.690;2022-10-16T04:13:13;5.97;;;5.37;;
16139;SDS011;8175;49.326;12.690;2022-10-16T04:15:39;5.33;;;4.83;;
16139;SDS011;8175;49.326;12.690;2022-10-16T04:18:05;5.03;;;4.20;;
16139;SDS011;8175;49.326;12.690;2022-10-16T04:20:31;5.47;;;4.80;;
16139;SDS011;8175;49.326;12.690;2022-10-16T04:22:57;5.33;;;4.83;;
16139;SDS011;8175;49.326;12.690;2022-10-16T04:25:23;5.60;;;4.47;;
16139;SDS011;8175;49.326;12.690;2022-10-16T04:27:48;5.80;;;4.30;;
16139;SDS011;8175;49.326;12.690;2022-10-16T04:30:14;4.77;;;4.37;;
16139;SDS011;8175;49.326;12.690;2022-10-16T04:32:40;6.40;;;4.47;;
16139;SDS011;8175;49.326;12.690;2022-10-16T04:35:06;5.27;;;4.77;;
16139;SDS011;8175;49.326;12.690;2022-10-16T04:37:32;4.47;;;3.87;;
16139;SDS011;8175;49.326;12.690;2022-10-16T04:39:57;4.67;;;4.27;;
16139;SDS011;8175;49.326;12.690;2022-10-16T04:42:23;4.47;;;4.07;;
16139;SDS011;8175;49.326;12.690;2022-10-16T04:44:49;4.43;;;4.03;;
16139;SDS011;8175;49.326;12.690;2022-10-16T04:47:14;3.70;;;3.40;;
16139;SDS011;8175;49.326;12.690;2022-10-16T04:49:40;3.30;;;2.87;;
16139;SDS011;8175;49.326;12.690;2022-10-16T04:52:06;4.00;;;3.70;;
16139;SDS011;8175;49.326;12.690;2022-10-16T04:54:31;3.60;;;3.30;;
16139;SDS011;8175;49.326;12.690;2022-10-16T04:56:57;3.90;;;3.43;;
16139;SDS011;8175;49.326;12.690;2022-10-16T04:59:23;7.83;;;3.10;;
16139;SDS011;8175;49.326;12.690;2022-10-16T05:01:49;3.60;;;3.30;;
16139;SDS011;8175;49.326;12.690;2022-10-16T05:04:14;5.10;;;3.37;;
16139;SDS011;8175;49.326;12.690;2022-10-16T05:06:40;4.50;;;4.10;;
16139;SDS011;8175;49.326;12.690;2022-10-16T05:09:07;4.30;;;3.90;;
16139;SDS011;8175;49.326;12.690;2022-10-16T05:11:33;4.63;;;3.70;;
16139;SDS011;8175;49.326;12.690;2022-10-16T05:13:59;4.00;;;3.60;;
16139;SDS011;8175;49.326;12.690;2022-10-16T05:16:25;5.20;;;3.53;;
16139;SDS011;8175;49.326;12.690;2022-10-16T05:18:51;4.93;;;3.70;;
16139;SDS011;8175;49.326;12.690;2022-10-16T05:21:17;3.63;;;3.23;;
16139;SDS011;8175;49.326;12.690;2022-10-16T05:23:43;4.57;;;3.30;;
16139;SDS011;8175;49.326;12.690;2022-10-16T05:26:09;6.20;;;3.30;;
16139;SDS011;8175;49.326;12.690;2022-10-16T05:28:34;4.10;;;3.70;;
16139;SDS011;8175;49.326;12.690;2022-10-16T05:31:07;3.03;;;2.80;;
16139;SDS011;8175;49.326;12.690;2022-10-16T05:33:33;3.10;;;2.90;;
16139;SDS011;8175;49.326;12.690;2022-10-16T05:36:02;3.67;;;3.00;;
16139;SDS011;8175;49.326;12.690;2022-10-16T05:38:30;3.43;;;3.13;;
16139;SDS011;8175;49.326;12.690;2022-10-16T05:40:56;3.00;;;2.80;;
16139;SDS011;8175;49.326;12.690;2022-10-16T05:43:21;4.47;;;3.33;;
16139;SDS011;8175;49.326;12.690;2022-10-16T05:45:57;5.23;;;3.27;;
16139;SDS011;8175;49.326;12.690;2022-10-16T05:48:28;4.97;;;3.87;;
16139;SDS011;8175;49.326;12.690;2022-10-16T05:51:04;4.07;;;3.57;;
16139;SDS011;8175;49.326;12.690;2022-10-16T05:53:32;5.17;;;3.80;;
16139;SDS011;8175;49.326;12.690;2022-10-16T05:56:00;4.00;;;3.23;;
16139;SDS011;8175;49.326;12.690;2022-10-16T05:58:30;3.67;;;2.73;;
16139;SDS011;8175;49.326;12.690;2022-10-16T06:01:00;4.97;;;3.53;;
16139;SDS011;8175;49.326;12.690;2022-10-16T06:03:27;4.67;;;4.10;;
16139;SDS011;8175;49.326;12.690;2022-10-16T06:05:53;5.87;;;4.00;;
16139;SDS011;8175;49.326;12.690;2022-10-16T06:08:20;4.07;;;3.77;;
16139;SDS011;8175;49.326;12.690;2022-10-16T06:10:47;3.40;;;3.10;;
16139;SDS011;8175;49.326;12.690;2022-10-16T06:13:13;5.63;;;4.07;;
16139;SDS011;8175;49.326;12.690;2022-10-16T06:15:42;5.27;;;3.67;;
16139;SDS011;8175;49.326;12.690;2022-10-16T06:18:09;5.03;;;3.30;;
16139;SDS011;8175;49.326;12.690;2022-10-16T06:20:35;4.80;;;3.30;;
16139;SDS011;8175;49.326;12.690;2022-10-16T06:23:01;3.03;;;2.73;;
16139;SDS011;8175;49.326;12.690;2022-10-16T06:25:27;3.17;;;2.97;;
16139;SDS011;8175;49.326;12.690;2022-10-16T06:27:52;5.47;;;2.87;;
16139;SDS011;8175;49.326;12.690;2022-10-16T06:30:18;3.00;;;2.80;;
16139;SDS011;8175;49.326;12.690;2022-10-16T06:32:44;3.00;;;2.80;;
16139;SDS011;8175;49.326;12.690;2022-10-16T06:35:09;3.27;;;2.50;;
16139;SDS011;8175;49.326;12.690;2022-10-16T06:37:35;2.70;;;2.50;;
16139;SDS011;8175;49.326;12.690;2022-10-16T06:40:00;2.77;;;2.20;;
16139;SDS011;8175;49.326;12.690;2022-10-16T06:42:29;2.40;;;2.20;;
16139;SDS011;8175;49.326;12.690;2022-10-16T06:44:54;2.60;;;2.23;;
16139;SDS011;8175;49.326;12.690;2022-10-16T06:47:20;2.30;;;2.10;;
16139;SDS011;8175;49.326;12.690;2022-10-16T06:49:46;4.50;;;2.10;;
16139;SDS011;8175;49.326;12.690;2022-10-16T06:52:11;1.57;;;1.40;;
16139;SDS011;8175;49.326;12.690;2022-10-16T06:54:37;1.67;;;1.57;;
16139;SDS011;8175;49.326;12.690;2022-10-16T06:57:03;3.17;;;2.83;;
16139;SDS011;8175;49.326;12.690;2022-10-16T06:59:28;5.47;;;4.43;;
16139;SDS011;8175;49.326;12.690;2022-10-16T07:01:54;3.83;;;2.70;;
16139;SDS011;8175;49.326;12.690;2022-10-16T07:04:19;2.13;;;1.80;;
16139;SDS011;8175;49.326;12.690;2022-10-16T07:06:45;1.40;;;1.30;;
16139;SDS011;8175;49.326;12.690;2022-10-16T07:09:11;4.73;;;2.00;;
16139;SDS011;8175;49.326;12.690;2022-10-16T07:11:38;2.77;;;1.60;;
16139;SDS011;8175;49.326;12.690;2022-10-16T07:14:04;2.07;;;1.40;;
16139;SDS011;8175;49.326;12.690;2022-10-16T07:16:31;1.80;;;1.70;;
16139;SDS011;8175;49.326;12.690;2022-10-16T07:18:58;1.80;;;1.60;;
16139;SDS011;8175;49.326;12.690;2022-10-16T07:21:26;2.40;;;1.60;;
16139;SDS011;8175;49.326;12.690;2022-10-16T07:23:54;1.70;;;1.60;;
16139;SDS011;8175;49.326;12.690;2022-10-16T07:26:24;2.03;;;1.63;;
16139;SDS011;8175;49.326;12.690;2022-10-16T07:28:51;2.10;;;1.43;;
16139;SDS011;8175;49.326;12.690;2022-10-16T07:31:18;1.70;;;1.30;;
16139;SDS011;8175;49.326;12.690;2022-10-16T07:33:45;21.67;;;17.60;;
16139;SDS011;8175;49.326;12.690;2022-10-16T07:36:13;2.57;;;2.37;;
16139;SDS011;8175;49.326;12.690;2022-10-16T07:38:40;2.90;;;1.70;;
16139;SDS011;8175;49.326;12.690;2022-10-16T07:41:09;2.37;;;2.17;;
16139;SDS011;8175;49.326;12.690;2022-10-16T07:43:39;1.57;;;1.47;;
16139;SDS011;8175;49.326;12.690;2022-10-16T07:46:05;2.77;;;1.73;;
16139;SDS011;8175;49.326;12.690;2022-10-16T07:48:32;2.53;;;1.23;;
16139;SDS011;8175;49.326;12.690;2022-10-16T07:51:03;2.47;;;1.50;;
16139;SDS011;8175;49.326;12.690;2022-10-16T07:53:30;1.30;;;1.20;;
16139;SDS011;8175;49.326;12.690;2022-10-16T07:56:00;1.87;;;1.40;;
16139;SDS011;8175;49.326;12.690;2022-10-16T07:58:27;3.30;;;1.67;;
16139;SDS011;8175;49.326;12.690;2022-10-16T08:00:54;4.17;;;1.93;;
16139;SDS011;8175;49.326;12.690;2022-10-16T08:03:20;3.20;;;1.50;;
16139;SDS011;8175;49.326;12.690;2022-10-16T08:05:45;1.77;;;1.60;;
16139;SDS011;8175;49.326;12.690;2022-10-16T08:08:15;3.57;;;1.80;;
16139;SDS011;8175;49.326;12.690;2022-10-16T08:10:42;2.47;;;1.43;;
16139;SDS011;8175;49.326;12.690;2022-10-16T08:13:07;2.23;;;1.60;;
16139;SDS011;8175;49.326;12.690;2022-10-16T08:15:33;4.20;;;1.67;;
16139;SDS011;8175;49.326;12.690;2022-10-16T08:18:00;2.90;;;1.60;;
16139;SDS011;8175;49.326;12.690;2022-10-16T08:20:27;1.60;;;1.20;;
16139;SDS011;8175;49.326;12.690;2022-10-16T08:22:54;1.83;;;1.27;;
16139;SDS011;8175;49.326;12.690;2022-10-16T08:25:21;2.17;;;1.97;;
16139;SDS011;8175;49.326;12.690;2022-10-16T08:27:47;2.07;;;1.80;;
16139;SDS011;8175;49.326;12.690;2022-10-16T08:30:13;2.20;;;1.47;;
16139;SDS011;8175;49.326;12.690;2022-10-16T08:32:40;1.70;;;1.23;;
16139;SDS011;8175;49.326;12.690;2022-10-16T08:35:09;3.13;;;1.20;;
16139;SDS011;8175;49.326;12.690;2022-10-16T08:37:35;2.17;;;1.17;;
16139;SDS011;8175;49.326;12.690;2022-10-16T08:40:02;1.20;;;1.10;;
16139;SDS011;8175;49.326;12.690;2022-10-16T08:42:50;2.67;;;1.40;;
16139;SDS011;8175;49.326;12.690;2022-10-16T08:50:48;2.60;;;1.30;;
16139;SDS011;8175;49.326;12.690;2022-10-16T08:53:26;2.47;;;1.50;;
16139;SDS011;8175;49.326;12.690;2022-10-16T08:55:58;2.10;;;1.37;;
16139;SDS011;8175;49.326;12.690;2022-10-16T08:58:27;1.50;;;1.30;;
16139;SDS011;8175;49.326;12.690;2022-10-16T09:00:58;3.00;;;1.40;;
16139;SDS011;8175;49.326;12.690;2022-10-16T09:06:02;2.60;;;1.90;;
16139;SDS011;8175;49.326;12.690;2022-10-16T09:09:11;3.47;;;1.57;;
16139;SDS011;8175;49.326;12.690;2022-10-16T09:12:00;3.37;;;1.70;;
16139;SDS011;8175;49.326;12.690;2022-10-16T09:15:22;3.57;;;1.70;;
16139;SDS011;8175;49.326;12.690;2022-10-16T09:17:56;1.40;;;1.30;;
16139;SDS011;8175;49.326;12.690;2022-10-16T09:23:13;2.00;;;1.80;;
16139;SDS011;8175;49.326;12.690;2022-10-16T09:26:00;3.00;;;2.40;;
16139;SDS011;8175;49.326;12.690;2022-10-16T09:28:26;2.53;;;1.80;;
16139;SDS011;8175;49.326;12.690;2022-10-16T09:30:52;4.27;;;2.50;;
16139;SDS011;8175;49.326;12.690;2022-10-16T09:33:19;2.47;;;1.93;;
16139;SDS011;8175;49.326;12.690;2022-10-16T09:35:51;1.90;;;1.70;;
16139;SDS011;8175;49.326;12.690;2022-10-16T09:38:24;3.33;;;1.47;;
16139;SDS011;8175;49.326;12.690;2022-10-16T09:40:57;1.87;;;1.77;;
16139;SDS011;8175;49.326;12.690;2022-10-16T09:46:19;1.75;;;1.40;;
16139;SDS011;8175;49.326;12.690;2022-10-16T09:48:57;2.33;;;1.70;;
16139;SDS011;8175;49.326;12.690;2022-10-16T09:51:28;1.17;;;1.05;;
16139;SDS011;8175;49.326;12.690;2022-10-16T09:54:17;1.45;;;1.20;;
16139;SDS011;8175;49.326;12.690;2022-10-16T09:56:45;1.80;;;1.10;;
16139;SDS011;8175;49.326;12.690;2022-10-16T10:01:43;1.38;;;1.27;;
16139;SDS011;8175;49.326;12.690;2022-10-16T10:04:11;2.75;;;1.20;;
16139;SDS011;8175;49.326;12.690;2022-10-16T10:06:41;1.55;;;1.45;;
16139;SDS011;8175;49.326;12.690;2022-10-16T10:09:17;1.60;;;1.50;;
16139;SDS011;8175;49.326;12.690;2022-10-16T10:11:55;1.73;;;1.63;;
16139;SDS011;8175;49.326;12.690;2022-10-16T10:16:48;2.28;;;1.60;;
16139;SDS011;8175;49.326;12.690;2022-10-16T10:19:19;1.05;;;1.00;;
16139;SDS011;8175;49.326;12.690;2022-10-16T10:21:46;1.90;;;1.17;;
16139;SDS011;8175;49.326;12.690;2022-10-16T10:24:13;3.30;;;1.55;;
16139;SDS011;8175;49.326;12.690;2022-10-16T10:26:42;1.88;;;1.13;;
16139;SDS011;8175;49.326;12.690;2022-10-16T10:29:34;0.98;;;0.90;;
16139;SDS011;8175;49.326;12.690;2022-10-16T10:32:21;2.03;;;1.85;;
16139;SDS011;8175;49.326;12.690;2022-10-16T10:35:01;1.20;;;1.20;;
16139;SDS011;8175;49.326;12.690;2022-10-16T10:37:42;3.78;;;1.40;;
16139;SDS011;8175;49.326;12.690;2022-10-16T10:46:03;1.30;;;1.20;;
16139;SDS011;8175;49.326;12.690;2022-10-16T10:51:11;2.50;;;0.95;;
16139;SDS011;8175;49.326;12.690;2022-10-16T11:07:39;1.20;;;1.10;;
16139;SDS011;8175;49.326;12.690;2022-10-16T11:10:21;1.17;;;1.08;;
16139;SDS011;8175;49.326;12.690;2022-10-16T11:13:14;1.38;;;1.00;;
16139;SDS011;8175;49.326;12.690;2022-10-16T11:15:48;2.28;;;1.83;;
16139;SDS011;8175;49.326;12.690;2022-10-16T11:21:10;1.50;;;1.20;;
16139;SDS011;8175;49.326;12.690;2022-10-16T11:26:25;1.42;;;0.90;;
16139;SDS011;8175;49.326;12.690;2022-10-16T11:28:54;2.95;;;1.00;;
16139;SDS011;8175;49.326;12.690;2022-10-16T11:31:28;2.60;;;1.00;;
16139;SDS011;8175;49.326;12.690;2022-10-16T11:36:51;0.88;;;0.80;;
16139;SDS011;8175;49.326;12.690;2022-10-16T11:39:23;1.20;;;1.10;;
16139;SDS011;8175;49.326;12.690;2022-10-16T11:42:11;1.40;;;1.15;;
16139;SDS011;8175;49.326;12.690;2022-10-16T11:47:40;2.50;;;0.90;;
16139;SDS011;8175;49.326;12.690;2022-10-16T11:55:44;0.90;;;0.90;;
16139;SDS011;8175;49.326;12.690;2022-10-16T11:58:15;1.92;;;1.05;;
16139;SDS011;8175;49.326;12.690;2022-10-16T12:09:24;1.90;;;1.00;;
16139;SDS011;8175;49.326;12.690;2022-10-16T12:11:52;1.25;;;0.80;;
16139;SDS011;8175;49.326;12.690;2022-10-16T12:14:20;1.10;;;1.00;;
16139;SDS011;8175;49.326;12.690;2022-10-16T12:16:58;0.80;;;0.80;;
16139;SDS011;8175;49.326;12.690;2022-10-16T12:19:26;0.80;;;0.80;;
16139;SDS011;8175;49.326;12.690;2022-10-16T12:21:55;1.17;;;0.98;;
16139;SDS011;8175;49.326;12.690;2022-10-16T12:24:38;1.65;;;0.98;;
16139;SDS011;8175;49.326;12.690;2022-10-16T12:27:20;0.73;;;0.73;;
16139;SDS011;8175;49.326;12.690;2022-10-16T12:30:05;0.70;;;0.70;;
16139;SDS011;8175;49.326;12.690;2022-10-16T12:35:00;3.17;;;1.02;;
16139;SDS011;8175;49.326;12.690;2022-10-16T12:37:31;1.02;;;0.80;;
16139;SDS011;8175;49.326;12.690;2022-10-16T12:40:04;1.80;;;1.00;;
16139;SDS011;8175;49.326;12.690;2022-10-16T12:42:57;0.77;;;0.77;;
16139;SDS011;8175;49.326;12.690;2022-10-16T12:47:50;0.95;;;0.90;;
16139;SDS011;8175;49.326;12.690;2022-10-16T12:52:56;1.30;;;1.20;;
16139;SDS011;8175;49.326;12.690;2022-10-16T12:55:22;1.50;;;1.02;;
16139;SDS011;8175;49.326;12.690;2022-10-16T13:22:33;4.65;;;1.05;;
16139;SDS011;8175;49.326;12.690;2022-10-16T13:28:06;0.98;;;0.88;;
16139;SDS011;8175;49.326;12.690;2022-10-16T13:30:37;1.67;;;0.88;;
16139;SDS011;8175;49.326;12.690;2022-10-16T13:36:17;0.85;;;0.85;;
16139;SDS011;8175;49.326;12.690;2022-10-16T13:38:48;1.55;;;1.20;;
16139;SDS011;8175;49.326;12.690;2022-10-16T13:41:24;1.65;;;0.80;;
16139;SDS011;8175;49.326;12.690;2022-10-16T13:43:50;1.27;;;1.17;;
16139;SDS011;8175;49.326;12.690;2022-10-16T13:46:19;2.40;;;0.88;;
16139;SDS011;8175;49.326;12.690;2022-10-16T13:49:03;1.40;;;1.30;;
16139;SDS011;8175;49.326;12.690;2022-10-16T13:51:56;1.58;;;1.48;;
16139;SDS011;8175;49.326;12.690;2022-10-16T13:54:23;1.52;;;1.10;;
16139;SDS011;8175;49.326;12.690;2022-10-16T13:56:49;1.38;;;1.17;;
16139;SDS011;8175;49.326;12.690;2022-10-16T13:59:25;1.08;;;0.98;;
16139;SDS011;8175;49.326;12.690;2022-10-16T14:01:57;1.75;;;1.02;;
16139;SDS011;8175;49.326;12.690;2022-10-16T14:04:23;0.90;;;0.90;;
16139;SDS011;8175;49.326;12.690;2022-10-16T14:06:52;2.05;;;1.20;;
16139;SDS011;8175;49.326;12.690;2022-10-16T14:09:22;1.10;;;1.02;;
16139;SDS011;8175;49.326;12.690;2022-10-16T14:12:00;1.17;;;1.13;;
16139;SDS011;8175;49.326;12.690;2022-10-16T14:14:32;2.05;;;1.40;;
16139;SDS011;8175;49.326;12.690;2022-10-16T14:17:05;1.45;;;1.15;;
16139;SDS011;8175;49.326;12.690;2022-10-16T14:19:30;1.10;;;1.10;;
16139;SDS011;8175;49.326;12.690;2022-10-16T14:21:57;1.95;;;1.27;;
16139;SDS011;8175;49.326;12.690;2022-10-16T14:26:52;5.13;;;1.20;;
16139;SDS011;8175;49.326;12.690;2022-10-16T14:29:21;2.10;;;1.30;;
16139;SDS011;8175;49.326;12.690;2022-10-16T14:34:35;1.35;;;1.25;;
16139;SDS011;8175;49.326;12.690;2022-10-16T14:37:21;2.40;;;1.45;;
16139;SDS011;8175;49.326;12.690;2022-10-16T14:39:50;1.27;;;1.17;;
16139;SDS011;8175;49.326;12.690;2022-10-16T14:42:18;1.85;;;1.30;;
16139;SDS011;8175;49.326;12.690;2022-10-16T14:44:45;1.58;;;1.38;;
16139;SDS011;8175;49.326;12.690;2022-10-16T14:47:16;1.60;;;1.30;;
16139;SDS011;8175;49.326;12.690;2022-10-16T14:49:49;1.27;;;1.17;;
16139;SDS011;8175;49.326;12.690;2022-10-16T14:52:15;2.80;;;1.40;;
16139;SDS011;8175;49.326;12.690;2022-10-16T14:54:41;1.02;;;0.95;;
16139;SDS011;8175;49.326;12.690;2022-10-16T14:57:17;3.30;;;1.30;;
16139;SDS011;8175;49.326;12.690;2022-10-16T14:59:45;1.52;;;1.42;;
16139;SDS011;8175;49.326;12.690;2022-10-16T15:04:53;1.67;;;1.30;;
16139;SDS011;8175;49.326;12.690;2022-10-16T15:07:18;2.60;;;1.20;;
16139;SDS011;8175;49.326;12.690;2022-10-16T15:09:44;1.57;;;1.47;;
16139;SDS011;8175;49.326;12.690;2022-10-16T15:12:10;3.40;;;1.50;;
16139;SDS011;8175;49.326;12.690;2022-10-16T15:14:35;3.07;;;1.60;;
16139;SDS011;8175;49.326;12.690;2022-10-16T15:17:02;1.50;;;1.40;;
16139;SDS011;8175;49.326;12.690;2022-10-16T15:19:28;1.90;;;1.50;;
16139;SDS011;8175;49.326;12.690;2022-10-16T15:21:54;4.90;;;1.60;;
16139;SDS011;8175;49.326;12.690;2022-10-16T15:24:20;1.40;;;1.30;;
16139;SDS011;8175;49.326;12.690;2022-10-16T15:26:46;3.03;;;1.57;;
16139;SDS011;8175;49.326;12.690;2022-10-16T15:29:12;3.17;;;1.47;;
16139;SDS011;8175;49.326;12.690;2022-10-16T15:31:37;1.90;;;1.67;;
16139;SDS011;8175;49.326;12.690;2022-10-16T15:34:03;3.83;;;1.80;;
16139;SDS011;8175;49.326;12.690;2022-10-16T15:36:34;2.10;;;1.50;;
16139;SDS011;8175;49.326;12.690;2022-10-16T15:39:03;1.93;;;1.60;;
16139;SDS011;8175;49.326;12.690;2022-10-16T15:41:29;3.63;;;1.97;;
16139;SDS011;8175;49.326;12.690;2022-10-16T15:43:55;4.50;;;2.10;;
16139;SDS011;8175;49.326;12.690;2022-10-16T15:46:22;2.37;;;1.60;;
16139;SDS011;8175;49.326;12.690;2022-10-16T15:48:49;1.60;;;1.50;;
16139;SDS011;8175;49.326;12.690;2022-10-16T15:51:16;6.03;;;1.90;;
16139;SDS011;8175;49.326;12.690;2022-10-16T15:53:43;3.67;;;2.00;;
16139;SDS011;8175;49.326;12.690;2022-10-16T15:56:11;9.97;;;2.23;;
16139;SDS011;8175;49.326;12.690;2022-10-16T15:58:38;5.93;;;2.00;;
16139;SDS011;8175;49.326;12.690;2022-10-16T16:01:04;8.17;;;2.77;;
16139;SDS011;8175;49.326;12.690;2022-10-16T16:03:30;5.53;;;1.93;;
16139;SDS011;8175;49.326;12.690;2022-10-16T16:05:56;3.40;;;2.10;;
16139;SDS011;8175;49.326;12.690;2022-10-16T16:08:23;3.83;;;2.20;;
16139;SDS011;8175;49.326;12.690;2022-10-16T16:10:56;6.23;;;1.97;;
16139;SDS011;8175;49.326;12.690;2022-10-16T16:13:23;6.73;;;1.90;;
16139;SDS011;8175;49.326;12.690;2022-10-16T16:15:49;1.90;;;1.80;;
16139;SDS011;8175;49.326;12.690;2022-10-16T16:18:14;2.30;;;2.10;;
16139;SDS011;8175;49.326;12.690;2022-10-16T16:20:40;6.60;;;2.30;;
16139;SDS011;8175;49.326;12.690;2022-10-16T16:23:06;5.73;;;2.20;;
16139;SDS011;8175;49.326;12.690;2022-10-16T16:25:31;3.70;;;2.13;;
16139;SDS011;8175;49.326;12.690;2022-10-16T16:27:57;6.20;;;2.50;;
16139;SDS011;8175;49.326;12.690;2022-10-16T16:30:23;3.17;;;2.20;;
16139;SDS011;8175;49.326;12.690;2022-10-16T16:32:48;5.83;;;2.40;;
16139;SDS011;8175;49.326;12.690;2022-10-16T16:35:14;8.13;;;2.63;;
16139;SDS011;8175;49.326;12.690;2022-10-16T16:37:40;3.93;;;2.47;;
16139;SDS011;8175;49.326;12.690;2022-10-16T16:40:05;3.73;;;2.90;;
16139;SDS011;8175;49.326;12.690;2022-10-16T16:42:31;5.73;;;2.40;;
16139;SDS011;8175;49.326;12.690;2022-10-16T16:44:57;3.60;;;2.60;;
16139;SDS011;8175;49.326;12.690;2022-10-16T16:47:22;4.07;;;2.73;;
16139;SDS011;8175;49.326;12.690;2022-10-16T16:49:48;5.20;;;3.17;;
16139;SDS011;8175;49.326;12.690;2022-10-16T16:52:14;3.97;;;2.67;;
16139;SDS011;8175;49.326;12.690;2022-10-16T16:54:40;2.70;;;2.50;;
16139;SDS011;8175;49.326;12.690;2022-10-16T16:57:06;7.60;;;4.60;;
16139;SDS011;8175;49.326;12.690;2022-10-16T16:59:31;4.67;;;2.53;;
16139;SDS011;8175;49.326;12.690;2022-10-16T17:01:58;10.40;;;5.13;;
16139;SDS011;8175;49.326;12.690;2022-10-16T17:04:24;10.90;;;3.00;;
16139;SDS011;8175;49.326;12.690;2022-10-16T17:06:51;6.73;;;4.07;;